Time;durP1;ratioP1;P1;durP2;ratioP2;P2;SDS_P1;SDS_P2;PMS_P1;PMS_P2;Temp;Humidity;BMP_temperature;BMP_pressure;BME280_temperature;BME280_humidity;BME280_pressure;Samples;Min_cycle;Max_cycle;Signal;HPM_P1;HPM_P2
2023/11/28 00:00:36;;;;;;;60.58;18.70;;;;;;;-0.97;100.00;99650.66;7393193;19;20183;-42
2023/11/28 00:03:06;;;;;;;10.38;3.72;;;;;;;-0.92;100.00;99650.97;7369897;19;20675;-43
2023/11/28 00:05:35;;;;;;;34.97;9.55;;;;;;;-0.99;100.00;99658.94;7394235;19;20139;-42
2023/11/28 00:08:08;;;;;;;5.35;2.50;;;;;;;-1.03;100.00;99662.03;7370326;19;20258;-44
2023/11/28 00:10:38;;;;;;;30.20;10.90;;;;;;;-0.96;100.00;99654.94;7391481;19;20249;-43
2023/11/28 00:13:09;;;;;;;101.78;31.33;;;;;;;-0.95;100.00;99653.31;7370507;19;20186;-45
2023/11/28 00:15:38;;;;;;;43.05;13.10;;;;;;;-1.05;100.00;99664.44;7393996;19;20210;-45
2023/11/28 00:18:08;;;;;;;9.73;3.88;;;;;;;-1.05;100.00;99653.44;7370425;19;20197;-41
2023/11/28 00:20:38;;;;;;;8.98;3.53;;;;;;;-1.23;100.00;99654.78;7393060;19;20201;-42
2023/11/28 00:23:10;;;;;;;48.30;16.17;;;;;;;-1.16;100.00;99651.03;7370476;19;20269;-47
2023/11/28 00:25:40;;;;;;;7.68;3.30;;;;;;;-1.15;100.00;99650.25;7395467;19;20157;-45
2023/11/28 00:28:10;;;;;;;38.50;13.35;;;;;;;-1.04;100.00;99645.94;7370247;19;20191;-43
2023/11/28 00:30:40;;;;;;;21.27;7.00;;;;;;;-0.99;100.00;99648.78;7392291;19;20248;-43
2023/11/28 00:33:09;;;;;;;9.23;3.55;;;;;;;-1.11;100.00;99638.69;7369769;19;20193;-43
2023/11/28 00:35:40;;;;;;;8.65;2.88;;;;;;;-1.22;100.00;99635.41;7393107;19;20153;-44
2023/11/28 00:38:12;;;;;;;26.88;9.68;;;;;;;-1.03;100.00;99636.72;7369716;19;20194;-42
2023/11/28 00:40:42;;;;;;;6.43;3.38;;;;;;;-1.00;100.00;99641.97;7391811;19;20241;-43
2023/11/28 00:43:12;;;;;;;16.88;6.15;;;;;;;-1.06;100.00;99647.50;7370218;19;20229;-43
2023/11/28 00:45:41;;;;;;;19.50;5.53;;;;;;;-0.91;100.00;99645.16;7392837;19;20150;-42
2023/11/28 00:48:11;;;;;;;17.25;6.07;;;;;;;-0.91;100.00;99645.16;7368237;19;20198;-41
2023/11/28 00:50:41;;;;;;;12.32;5.30;;;;;;;-0.85;100.00;99644.69;7393003;19;20203;-42
2023/11/28 00:53:13;;;;;;;16.73;6.25;;;;;;;-0.90;100.00;99646.03;7369782;19;20549;-42
2023/11/28 00:55:42;;;;;;;7.25;2.83;;;;;;;-0.85;100.00;99648.13;7395261;19;20153;-45
2023/11/28 00:58:12;;;;;;;6.47;2.70;;;;;;;-0.78;100.00;99648.56;7368934;19;20270;-44
2023/11/28 01:00:41;;;;;;;4.80;2.35;;;;;;;-0.92;100.00;99642.53;7391807;19;20199;-43
2023/11/28 01:03:11;;;;;;;11.77;4.75;;;;;;;-0.87;100.00;99641.19;7369289;19;20249;-42
2023/11/28 01:05:41;;;;;;;20.30;6.95;;;;;;;-0.81;100.00;99649.22;7394262;19;20153;-43
2023/11/28 01:08:13;;;;;;;14.00;5.72;;;;;;;-0.76;100.00;99631.78;7371906;19;20194;-41
2023/11/28 01:10:42;;;;;;;24.38;7.68;;;;;;;-0.74;100.00;99641.25;7397860;19;20174;-43
2023/11/28 01:13:12;;;;;;;6.38;3.00;;;;;;;-0.83;100.00;99641.50;7376103;19;20198;-42
2023/11/28 01:15:42;;;;;;;12.57;5.25;;;;;;;-0.79;100.00;99645.13;7401403;19;20146;-41
2023/11/28 01:18:11;;;;;;;33.95;12.00;;;;;;;-0.76;100.00;99642.81;7376018;19;20257;-42
2023/11/28 01:20:44;;;;;;;19.08;6.65;;;;;;;-0.80;100.00;99645.91;7398002;19;20182;-43
2023/11/28 01:23:16;;;;;;;5.43;2.92;;;;;;;-0.72;100.00;99642.25;7375767;19;20659;-43
2023/11/28 01:25:45;;;;;;;6.63;2.90;;;;;;;-0.60;100.00;99654.91;7398390;19;20527;-44
2023/11/28 01:28:16;;;;;;;4.70;2.72;;;;;;;-0.65;100.00;99645.19;7375620;19;20198;-43
2023/11/28 01:30:46;;;;;;;9.73;4.20;;;;;;;-0.57;100.00;99654.19;7398350;19;20206;-42
2023/11/28 01:33:15;;;;;;;3.88;2.03;;;;;;;-0.58;100.00;99657.50;7376042;19;20264;-42
2023/11/28 01:35:45;;;;;;;9.65;4.53;;;;;;;-0.59;100.00;99660.81;7398241;19;20139;-42
2023/11/28 01:38:17;;;;;;;21.75;7.90;;;;;;;-0.52;100.00;99657.94;7375446;19;20778;-42
2023/11/28 01:40:51;;;;;;;33.38;11.70;;;;;;;-0.53;100.00;99662.91;7397641;19;20183;-42
2023/11/28 01:43:27;;;;;;;10.55;3.83;;;;;;;-0.51;100.00;99661.34;7375738;19;20197;-42
2023/11/28 01:45:56;;;;;;;22.17;7.72;;;;;;;-0.53;100.00;99660.38;7396628;19;20865;-43
2023/11/28 01:48:26;;;;;;;5.60;2.00;;;;;;;-0.71;100.00;99660.88;7374346;19;20261;-43
2023/11/28 01:50:56;;;;;;;5.47;2.08;;;;;;;-0.75;100.00;99662.31;7395432;19;20680;-43
2023/11/28 01:53:29;;;;;;;6.95;2.95;;;;;;;-0.70;100.00;99660.97;7373436;19;20261;-44
2023/11/28 01:55:59;;;;;;;4.75;2.35;;;;;;;-0.80;100.00;99653.50;7394332;19;20147;-42
2023/11/28 01:58:29;;;;;;;12.23;4.85;;;;;;;-0.62;100.00;99655.56;7374831;19;20718;-42
2023/11/28 02:00:59;;;;;;;7.20;3.22;;;;;;;-0.66;100.00;99645.97;7395903;19;20196;-43
2023/11/28 02:03:29;;;;;;;15.65;5.25;;;;;;;-0.65;100.00;99655.34;7375251;19;20205;-43
2023/11/28 02:06:00;;;;;;;5.00;2.47;;;;;;;-0.74;100.00;99642.91;7395410;19;20138;-43
2023/11/28 02:08:34;;;;;;;4.20;1.77;;;;;;;-0.73;100.00;99643.03;7374979;19;20204;-44
2023/11/28 02:11:03;;;;;;;3.50;1.60;;;;;;;-0.66;100.00;99649.41;7395224;19;20182;-41
2023/11/28 02:13:34;;;;;;;6.07;1.55;;;;;;;-0.68;100.00;99651.81;7373270;19;20301;-43
2023/11/28 02:16:11;;;;;;;5.30;2.60;;;;;;;-0.66;100.00;99648.50;7396179;19;20147;-41
2023/11/28 02:18:41;;;;;;;3.28;1.60;;;;;;;-0.65;100.00;99647.72;7375167;19;20186;-43
2023/11/28 02:21:12;;;;;;;2.30;1.30;;;;;;;-0.88;100.00;99649.56;7395709;19;20581;-41
2023/11/28 02:23:44;;;;;;;7.00;2.50;;;;;;;-0.90;100.00;99652.00;7376229;19;20196;-41
2023/11/28 02:26:24;;;;;;;6.50;2.75;;;;;;;-1.02;100.00;99654.53;7385469;19;20155;-41
2023/11/28 02:28:53;;;;;;;23.05;8.70;;;;;;;-0.88;100.00;99662.22;7397047;19;20142;-42
2023/11/28 02:31:23;;;;;;;7.07;2.25;;;;;;;-0.90;100.00;99668.81;7373273;19;20194;-41
2023/11/28 02:33:53;;;;;;;2.90;1.90;;;;;;;-0.96;100.00;99672.69;7395903;19;20134;-42
2023/11/28 02:36:23;;;;;;;4.05;1.80;;;;;;;-0.97;100.00;99667.53;7373562;19;20236;-42
2023/11/28 02:38:53;;;;;;;2.40;1.20;;;;;;;-1.14;100.00;99671.38;7395879;19;20218;-43
2023/11/28 02:41:25;;;;;;;6.55;2.05;;;;;;;-1.06;100.00;99672.81;7373304;19;20241;-41
2023/11/28 02:43:54;;;;;;;18.73;6.18;;;;;;;-1.12;100.00;99677.44;7398013;19;20153;-45
2023/11/28 02:46:24;;;;;;;2.30;0.98;;;;;;;-1.18;100.00;99687.13;7368518;19;20150;-44
2023/11/28 02:48:54;;;;;;;3.13;1.45;;;;;;;-1.22;100.00;99693.63;7395055;19;20139;-42
2023/11/28 02:51:23;;;;;;;11.57;3.40;;;;;;;-1.15;100.00;99697.47;7372269;19;20199;-42
2023/11/28 02:53:53;;;;;;;5.18;2.17;;;;;;;-1.25;100.00;99704.41;7394837;19;20139;-44
2023/11/28 02:56:25;;;;;;;4.13;2.25;;;;;;;-1.38;100.00;99702.63;7372880;19;20155;-42
2023/11/28 02:58:56;;;;;;;5.78;1.75;;;;;;;-1.35;100.00;99704.50;7394848;19;20210;-42
2023/11/28 03:01:26;;;;;;;7.25;1.80;;;;;;;-1.32;100.00;99709.81;7371689;19;20669;-44
2023/11/28 03:03:56;;;;;;;12.95;4.60;;;;;;;-1.31;100.00;99705.63;7394630;19;20165;-41
2023/11/28 03:06:26;;;;;;;4.07;2.60;;;;;;;-1.35;100.00;99696.91;7372050;19;20156;-43
2023/11/28 03:08:56;;;;;;;24.95;7.95;;;;;;;-1.37;100.00;99695.94;7394730;19;20158;-42
2023/11/28 03:11:28;;;;;;;16.02;4.43;;;;;;;-1.30;100.00;99698.13;7371010;19;20185;-43
2023/11/28 03:13:57;;;;;;;6.85;2.25;;;;;;;-1.39;100.00;99692.44;7392970;19;20134;-46
2023/11/28 03:16:27;;;;;;;8.63;3.80;;;;;;;-1.31;100.00;99695.50;7372708;19;20525;-42
2023/11/28 03:18:57;;;;;;;11.35;4.60;;;;;;;-1.27;100.00;99692.41;7392396;19;20225;-42
2023/11/28 03:21:26;;;;;;;22.23;8.27;;;;;;;-1.18;100.00;99682.94;7371188;19;20186;-43
2023/11/28 03:23:56;;;;;;;5.53;2.88;;;;;;;-1.23;100.00;99689.34;7394129;19;20214;-42
2023/11/28 03:26:28;;;;;;;14.00;6.32;;;;;;;-1.21;100.00;99682.72;7372566;19;20143;-43
2023/11/28 03:28:58;;;;;;;4.90;2.90;;;;;;;-1.16;100.00;99681.41;7393829;19;20670;-43
2023/11/28 03:31:27;;;;;;;8.95;3.88;;;;;;;-1.09;100.00;99681.06;7369120;19;20181;-41
2023/11/28 03:33:57;;;;;;;22.10;8.52;;;;;;;-0.88;100.00;99682.50;7392514;19;20496;-42
2023/11/28 03:36:27;;;;;;;7.07;3.35;;;;;;;-0.81;100.00;99684.69;7371829;19;20214;-45
2023/11/28 03:38:56;;;;;;;33.38;11.70;;;;;;;-0.60;100.00;99686.94;7394014;19;20562;-45
2023/11/28 03:41:28;;;;;;;6.10;2.80;;;;;;;-0.78;100.00;99679.81;7370834;19;20191;-43
2023/11/28 03:43:58;;;;;;;5.95;2.70;;;;;;;-0.86;100.00;99673.34;7392230;19;20198;-42
2023/11/28 03:46:29;;;;;;;5.47;2.70;;;;;;;-0.80;100.00;99676.31;7370143;19;20143;-45
2023/11/28 03:48:59;;;;;;;7.68;3.22;;;;;;;-0.70;100.00;99678.72;7393996;19;20142;-44
2023/11/28 03:51:29;;;;;;;5.50;3.22;;;;;;;-0.80;100.00;99681.38;7371500;19;20222;-43
2023/11/28 03:53:58;;;;;;;8.38;3.83;;;;;;;-0.76;100.00;99683.34;7391938;19;20142;-42
2023/11/28 03:56:31;;;;;;;7.15;3.30;;;;;;;-0.64;100.00;99682.44;7373355;19;20141;-43
2023/11/28 03:59:01;;;;;;;9.02;4.32;;;;;;;-0.51;100.00;99690.09;7391498;19;20146;-42
2023/11/28 04:01:32;;;;;;;10.95;3.80;;;;;;;-0.52;100.00;99688.34;7370527;19;20543;-44
2023/11/28 04:04:02;;;;;;;18.20;6.57;;;;;;;-0.56;100.00;99694.84;7392106;19;20153;-43
2023/11/28 04:06:32;;;;;;;21.40;9.32;;;;;;;-0.63;100.00;99695.22;7371111;19;20146;-41
2023/11/28 04:09:02;;;;;;;6.57;3.55;;;;;;;-0.91;100.00;99703.41;7392855;19;20215;-45
2023/11/28 04:11:34;;;;;;;17.85;6.60;;;;;;;-0.87;100.00;99701.97;7370327;19;20238;-41
2023/11/28 04:14:04;;;;;;;4.47;2.65;;;;;;;-0.94;100.00;99707.41;7391612;19;20146;-42
2023/11/28 04:16:34;;;;;;;16.55;5.60;;;;;;;-1.01;100.00;99712.03;7372088;19;20204;-42
2023/11/28 04:19:04;;;;;;;13.35;6.22;;;;;;;-0.98;100.00;99711.31;7390424;19;20170;-41
2023/11/28 04:21:33;;;;;;;16.52;5.85;;;;;;;-1.02;100.00;99712.75;7370568;19;20672;-41
2023/11/28 04:24:03;;;;;;;25.92;9.65;;;;;;;-1.00;100.00;99710.34;7390820;19;20155;-42
2023/11/28 04:26:35;;;;;;;5.53;2.72;;;;;;;-0.97;100.00;99713.97;7369670;19;21108;-41
2023/11/28 04:29:05;;;;;;;7.38;3.88;;;;;;;-0.97;100.00;99713.97;7392369;19;20150;-42
2023/11/28 04:31:36;;;;;;;7.22;3.40;;;;;;;-1.10;100.00;99718.94;7370035;19;20553;-46
2023/11/28 04:34:06;;;;;;;19.60;6.97;;;;;;;-0.82;100.00;99718.41;7390948;19;20143;-43
2023/11/28 04:36:35;;;;;;;7.47;4.05;;;;;;;-0.96;100.00;99718.25;7369944;19;20713;-43
2023/11/28 04:39:05;;;;;;;10.20;3.70;;;;;;;-0.99;100.00;99712.09;7390297;19;20143;-42
2023/11/28 04:41:38;;;;;;;6.72;3.50;;;;;;;-0.99;100.00;99720.59;7370333;19;20218;-41
2023/11/28 04:44:08;;;;;;;13.43;3.50;;;;;;;-0.90;100.00;99720.38;7397359;19;20218;-43
2023/11/28 04:46:38;;;;;;;5.20;2.67;;;;;;;-1.04;100.00;99729.50;7374567;19;20198;-42
2023/11/28 04:49:11;;;;;;;14.63;5.38;;;;;;;-0.92;100.00;99731.16;7398063;19;20654;-42
2023/11/28 04:51:42;;;;;;;16.67;5.85;;;;;;;-0.98;100.00;99740.09;7376571;19;20214;-43
2023/11/28 04:54:11;;;;;;;10.07;3.88;;;;;;;-1.06;100.00;99743.72;7397013;19;20150;-41
2023/11/28 04:56:43;;;;;;;6.57;3.17;;;;;;;-1.03;100.00;99749.00;7378578;19;20277;-41
2023/11/28 04:59:13;;;;;;;5.07;3.08;;;;;;;-1.03;100.00;99749.00;7395777;19;20142;-45
2023/11/28 05:01:46;;;;;;;13.77;4.85;;;;;;;-1.03;100.00;99746.47;7375466;19;20708;-41
2023/11/28 05:04:16;;;;;;;7.10;3.03;;;;;;;-1.01;100.00;99750.00;7397344;19;20164;-42
2023/11/28 05:06:46;;;;;;;7.25;3.13;;;;;;;-0.93;100.00;99744.59;7378021;19;20221;-41
2023/11/28 05:09:17;;;;;;;6.05;3.30;;;;;;;-0.99;100.00;99750.09;7396259;19;20760;-43
2023/11/28 05:11:47;;;;;;;8.63;3.13;;;;;;;-1.08;100.00;99755.38;7375103;19;20206;-44
2023/11/28 05:14:16;;;;;;;6.95;2.90;;;;;;;-0.99;100.00;99763.66;7396250;19;20155;-43
2023/11/28 05:16:46;;;;;;;6.65;3.25;;;;;;;-0.90;100.00;99760.91;7375740;19;20198;-44
2023/11/28 05:19:22;;;;;;;9.73;4.82;;;;;;;-0.86;100.00;99767.06;7396055;19;20623;-40
2023/11/28 05:21:53;;;;;;;4.97;2.83;;;;;;;-0.95;100.00;99759.69;7375389;19;20222;-44
2023/11/28 05:24:23;;;;;;;6.05;2.50;;;;;;;-1.01;100.00;99767.72;7396765;19;20153;-44
2023/11/28 05:26:56;;;;;;;7.07;3.42;;;;;;;-0.96;100.00;99768.91;7377513;19;20214;-44
2023/11/28 05:29:30;;;;;;;8.10;4.10;;;;;;;-0.96;100.00;99776.53;7398867;19;20156;-42
2023/11/28 05:32:01;;;;;;;13.40;5.45;;;;;;;-0.88;100.00;99768.63;7374056;19;20591;-42
2023/11/28 05:34:30;;;;;;;4.50;2.90;;;;;;;-0.90;100.00;99775.19;7398581;19;20166;-43
2023/11/28 05:37:00;;;;;;;9.25;3.40;;;;;;;-0.93;100.00;99780.06;7374055;19;20202;-43
2023/11/28 05:39:30;;;;;;;8.82;2.90;;;;;;;-0.94;100.00;99768.19;7395625;19;20143;-42
2023/11/28 05:42:02;;;;;;;4.50;2.63;;;;;;;-0.92;100.00;99776.75;7374199;19;20214;-45
2023/11/28 05:44:31;;;;;;;8.05;3.80;;;;;;;-0.91;100.00;99774.34;7396501;19;20147;-42
2023/11/28 05:47:01;;;;;;;11.52;4.93;;;;;;;-0.91;100.00;99776.88;7372307;19;20198;-42
2023/11/28 05:49:31;;;;;;;7.00;3.40;;;;;;;-0.99;100.00;99777.94;7397842;19;20488;-42
2023/11/28 05:52:01;;;;;;;6.60;3.30;;;;;;;-1.07;100.00;99782.47;7373625;19;20194;-42
2023/11/28 05:54:31;;;;;;;8.20;4.03;;;;;;;-1.13;100.00;99774.44;7394652;19;20178;-45
2023/11/28 05:57:03;;;;;;;9.25;3.80;;;;;;;-1.11;100.00;99780.47;7375362;19;20660;-43
2023/11/28 05:59:32;;;;;;;11.95;4.50;;;;;;;-1.08;100.00;99790.81;7395392;19;20139;-42
2023/11/28 06:02:04;;;;;;;6.00;3.83;;;;;;;-1.07;100.00;99796.78;7371230;19;20216;-43
2023/11/28 06:04:34;;;;;;;7.53;3.45;;;;;;;-1.02;100.00;99795.47;7394608;19;20143;-42
2023/11/28 06:07:04;;;;;;;10.25;4.05;;;;;;;-0.99;100.00;99796.56;7371156;19;20208;-43
2023/11/28 06:09:34;;;;;;;24.77;9.45;;;;;;;-0.90;100.00;99805.59;7394848;19;20147;-42
2023/11/28 06:12:06;;;;;;;7.20;3.03;;;;;;;-1.00;100.00;99799.88;7371730;19;20196;-43
2023/11/28 06:14:36;;;;;;;5.70;3.42;;;;;;;-1.02;100.00;99811.53;7390132;19;20139;-45
2023/11/28 06:17:06;;;;;;;12.45;5.22;;;;;;;-0.99;100.00;99809.22;7373489;19;20564;-41
2023/11/28 06:19:35;;;;;;;15.00;5.00;;;;;;;-1.05;100.00;99811.31;7394796;19;20487;-42
2023/11/28 06:22:06;;;;;;;9.38;4.05;;;;;;;-1.00;100.00;99812.53;7372700;19;20301;-44
2023/11/28 06:24:37;;;;;;;4.80;2.60;;;;;;;-0.99;100.00;99816.84;7395394;19;20143;-43
2023/11/28 06:27:09;;;;;;;22.50;7.63;;;;;;;-0.99;100.00;99826.06;7373082;19;20190;-44
2023/11/28 06:29:39;;;;;;;7.22;3.65;;;;;;;-1.16;100.00;99824.84;7395310;19;20147;-42
2023/11/28 06:32:09;;;;;;;4.95;2.28;;;;;;;-1.19;100.00;99825.50;7370986;19;20277;-43
2023/11/28 06:34:38;;;;;;;4.85;2.13;;;;;;;-1.19;100.00;99829.69;7395631;19;20142;-41
2023/11/28 06:37:08;;;;;;;5.10;2.60;;;;;;;-1.38;100.00;99829.19;7372457;19;20190;-44
2023/11/28 06:39:39;;;;;;;5.50;2.53;;;;;;;-1.39;100.00;99831.63;7394676;19;20160;-42
2023/11/28 06:42:11;;;;;;;5.90;2.97;;;;;;;-1.46;100.00;99837.88;7372296;19;20190;-43
2023/11/28 06:44:41;;;;;;;4.75;2.60;;;;;;;-1.39;100.00;99845.16;7395486;19;20488;-42
2023/11/28 06:47:10;;;;;;;7.80;3.05;;;;;;;-1.38;100.00;99851.97;7371052;19;20191;-42
2023/11/28 06:49:40;;;;;;;7.93;2.90;;;;;;;-1.42;100.00;99849.09;7393537;19;20142;-42
2023/11/28 06:52:10;;;;;;;8.77;2.75;;;;;;;-1.45;100.00;99856.47;7372911;19;20727;-41
2023/11/28 06:54:39;;;;;;;7.00;3.15;;;;;;;-1.42;100.00;99855.06;7395139;19;20139;-41
2023/11/28 06:57:11;;;;;;;7.05;3.08;;;;;;;-1.48;100.00;99856.22;7371628;19;20197;-40
2023/11/28 06:59:41;;;;;;;9.23;3.85;;;;;;;-1.54;100.00;99860.06;7394393;19;20142;-42
2023/11/28 07:02:10;;;;;;;4.70;2.53;;;;;;;-1.50;100.00;99862.06;7371169;19;20655;-42
2023/11/28 07:04:42;;;;;;;16.80;6.07;;;;;;;-1.56;100.00;99871.72;7394284;19;20226;-43
2023/11/28 07:07:11;;;;;;;10.68;4.85;;;;;;;-1.69;100.00;99872.41;7371585;19;20183;-41
2023/11/28 07:09:47;;;;;;;5.65;2.60;;;;;;;-1.66;100.00;99875.19;7394175;19;20206;-40
2023/11/28 07:12:19;;;;;;;6.10;3.20;;;;;;;-1.63;100.00;99874.56;7368973;19;20197;-43
2023/11/28 07:14:50;;;;;;;4.65;2.10;;;;;;;-1.66;100.00;99879.34;7394571;19;20142;-40
2023/11/28 07:17:20;;;;;;;9.13;3.55;;;;;;;-1.56;100.00;99881.84;7371331;19;20274;-42
2023/11/28 07:19:50;;;;;;;7.60;2.55;;;;;;;-1.76;100.00;99882.84;7394131;19;20183;-40
2023/11/28 07:22:19;;;;;;;6.30;3.10;;;;;;;-1.73;100.00;99893.19;7372207;19;20208;-40
2023/11/28 07:24:49;;;;;;;6.00;3.47;;;;;;;-1.68;100.00;99896.06;7394672;19;20143;-40
2023/11/28 07:27:21;;;;;;;4.22;2.40;;;;;;;-1.70;100.00;99892.56;7368792;19;20193;-42
2023/11/28 07:29:51;;;;;;;9.68;3.83;;;;;;;-1.72;100.00;99894.06;7393009;19;20703;-40
2023/11/28 07:32:20;;;;;;;10.50;3.85;;;;;;;-1.77;100.00;99892.09;7371138;19;20194;-41
2023/11/28 07:34:50;;;;;;;7.80;3.65;;;;;;;-1.75;100.00;99891.31;7394421;19;20143;-42
2023/11/28 07:37:19;;;;;;;6.90;3.20;;;;;;;-1.78;100.00;99895.34;7368483;19;20210;-41
2023/11/28 07:39:49;;;;;;;9.43;3.15;;;;;;;-1.81;100.00;99905.25;7393476;19;20219;-40
2023/11/28 07:42:21;;;;;;;7.03;2.75;;;;;;;-1.73;100.00;99895.72;7370589;19;20198;-40
2023/11/28 07:44:51;;;;;;;7.20;3.25;;;;;;;-1.73;100.00;99902.41;7393538;19;20637;-41
2023/11/28 07:47:21;;;;;;;7.50;2.85;;;;;;;-1.78;100.00;99909.66;7369674;19;20210;-41
2023/11/28 07:49:51;;;;;;;10.88;3.95;;;;;;;-1.67;100.00;99910.50;7393087;19;20182;-39
2023/11/28 07:52:21;;;;;;;6.10;3.30;;;;;;;-1.69;100.00;99914.56;7370655;19;20194;-41
2023/11/28 07:54:50;;;;;;;9.20;3.85;;;;;;;-1.60;100.00;99922.84;7395727;19;20237;-44
2023/11/28 07:57:22;;;;;;;9.13;3.28;;;;;;;-1.65;100.00;99924.13;7369905;19;20202;-42
2023/11/28 07:59:52;;;;;;;4.97;2.65;;;;;;;-1.62;100.00;99916.78;7393167;19;20170;-42
2023/11/28 08:02:22;;;;;;;7.53;2.70;;;;;;;-1.64;100.00;99924.25;7370484;19;20190;-40
2023/11/28 08:04:51;;;;;;;5.80;3.10;;;;;;;-1.58;100.00;99928.91;7392943;19;20151;-45
2023/11/28 08:07:22;;;;;;;10.93;3.50;;;;;;;-1.66;100.00;99943.50;7370345;19;20273;-40
2023/11/28 08:09:52;;;;;;;7.97;2.75;;;;;;;-1.68;100.00;99936.56;7392407;19;20237;-41
2023/11/28 08:12:24;;;;;;;5.97;2.55;;;;;;;-1.64;100.00;99933.50;7367604;19;20208;-40
2023/11/28 08:14:54;;;;;;;6.32;2.92;;;;;;;-1.64;100.00;99923.38;7392483;19;20146;-40
2023/11/28 08:17:24;;;;;;;4.80;2.42;;;;;;;-1.56;100.00;99932.44;7368696;19;20296;-40
2023/11/28 08:19:55;;;;;;;7.78;3.05;;;;;;;-1.55;100.00;99939.25;7392027;19;20552;-40
2023/11/28 08:22:25;;;;;;;5.55;2.97;;;;;;;-1.62;100.00;99937.03;7369804;19;20196;-40
2023/11/28 08:24:55;;;;;;;7.30;3.35;;;;;;;-1.64;100.00;99951.22;7390364;19;20202;-40
2023/11/28 08:27:28;;;;;;;3.95;2.13;;;;;;;-1.76;100.00;99948.59;7366722;19;20194;-42
2023/11/28 08:29:57;;;;;;;9.27;4.40;;;;;;;-1.58;100.00;99943.22;7391779;19;20182;-42
2023/11/28 08:32:30;;;;;;;5.20;2.65;;;;;;;-1.43;100.00;99948.56;7369475;19;20659;-40
2023/11/28 08:35:00;;;;;;;3.58;2.28;;;;;;;-1.50;100.00;99947.19;7391451;19;20142;-40
2023/11/28 08:37:31;;;;;;;4.70;2.53;;;;;;;-1.52;100.00;99949.63;7370040;19;20201;-42
2023/11/28 08:40:00;;;;;;;5.93;2.85;;;;;;;-1.55;100.00;99959.50;7390704;19;20182;-40
2023/11/28 08:42:32;;;;;;;3.70;2.10;;;;;;;-1.47;100.00;99957.56;7368994;19;20194;-40
2023/11/28 08:45:02;;;;;;;8.55;2.95;;;;;;;-1.57;100.00;99960.16;7391376;19;20210;-41
2023/11/28 08:47:32;;;;;;;4.40;2.60;;;;;;;-1.69;100.00;99966.00;7367880;19;20194;-39
2023/11/28 08:50:03;;;;;;;4.65;2.25;;;;;;;-1.76;100.00;99961.25;7390354;19;20187;-40
2023/11/28 08:52:33;;;;;;;5.55;2.35;;;;;;;-1.75;100.00;99959.63;7368843;19;20269;-41
2023/11/28 08:55:03;;;;;;;6.65;2.90;;;;;;;-1.72;100.00;99969.94;7391031;19;20145;-41
2023/11/28 08:57:36;;;;;;;7.93;3.63;;;;;;;-1.71;100.00;99971.72;7368689;19;20191;-42
2023/11/28 09:00:06;;;;;;;6.45;2.95;;;;;;;-1.64;100.00;99974.84;7389271;19;20174;-40
2023/11/28 09:02:37;;;;;;;8.75;3.40;;;;;;;-1.69;100.00;99971.06;7368519;19;20682;-40
2023/11/28 09:05:08;;;;;;;5.65;3.03;;;;;;;-1.70;100.00;99978.56;7392490;19;20150;-40
2023/11/28 09:07:39;;;;;;;14.77;3.45;;;;;;;-1.60;100.00;99981.03;7369290;19;20223;-42
2023/11/28 09:10:11;;;;;;;7.85;3.08;;;;;;;-1.63;100.00;99985.88;7389890;19;20274;-42
2023/11/28 09:12:47;;;;;;;8.80;4.03;;;;;;;-1.71;100.00;99976.78;7366618;19;20205;-43
2023/11/28 09:15:17;;;;;;;6.78;2.90;;;;;;;-1.78;100.00;99980.50;7391486;19;20237;-40
2023/11/28 09:17:47;;;;;;;5.10;3.15;;;;;;;-1.73;100.00;99978.31;7366114;19;20552;-41
2023/11/28 09:20:17;;;;;;;11.35;3.83;;;;;;;-1.63;100.00;99979.16;7390241;19;20174;-43
2023/11/28 09:22:47;;;;;;;5.47;2.63;;;;;;;-1.74;100.00;99985.03;7368706;19;20315;-43
2023/11/28 09:25:17;;;;;;;5.93;2.80;;;;;;;-1.62;100.00;99997.75;7390949;19;20139;-44
2023/11/28 09:27:49;;;;;;;7.20;3.13;;;;;;;-1.67;100.00;99993.97;7369134;19;20273;-43
2023/11/28 09:30:19;;;;;;;6.78;3.00;;;;;;;-1.54;100.00;99994.16;7395850;19;20190;-43
2023/11/28 09:32:50;;;;;;;8.00;2.80;;;;;;;-1.57;100.00;100006.59;7375591;19;20198;-42
2023/11/28 09:35:19;;;;;;;4.60;2.80;;;;;;;-1.57;100.00;100003.16;7396719;19;20143;-43
2023/11/28 09:37:52;;;;;;;6.80;2.95;;;;;;;-1.60;100.00;100016.44;7374145;19;20194;-43
2023/11/28 09:40:21;;;;;;;9.13;3.58;;;;;;;-1.43;100.00;100019.44;7395440;19;20260;-40
2023/11/28 09:42:54;;;;;;;9.70;2.80;;;;;;;-1.45;100.00;100019.31;7374976;19;20273;-43
2023/11/28 09:45:24;;;;;;;9.10;4.00;;;;;;;-1.49;100.00;100024.88;7397052;19;20151;-40
2023/11/28 09:47:57;;;;;;;6.30;2.70;;;;;;;-1.62;100.00;100033.16;7374595;19;20197;-42
2023/11/28 09:50:27;;;;;;;9.95;3.97;;;;;;;-1.61;100.00;100034.94;7396488;19;20211;-45
2023/11/28 09:52:57;;;;;;;3.90;2.47;;;;;;;-1.62;100.00;100033.16;7366953;19;20636;-43
2023/11/28 09:55:27;;;;;;;8.88;4.03;;;;;;;-1.40;100.00;100027.25;7397084;19;20146;-44
2023/11/28 09:58:03;;;;;;;9.40;3.55;;;;;;;-1.54;100.00;100041.38;7373492;19;20194;-44
2023/11/28 10:00:35;;;;;;;20.20;6.22;;;;;;;-1.61;100.00;100045.06;7397581;19;20181;-42
2023/11/28 10:03:05;;;;;;;7.57;3.03;;;;;;;-1.46;100.00;100044.47;7374086;19;20186;-43
2023/11/28 10:05:35;;;;;;;8.00;3.30;;;;;;;-1.63;100.00;100044.91;7396594;19;20491;-40
2023/11/28 10:08:06;;;;;;;8.13;3.80;;;;;;;-1.59;100.00;100041.00;7374337;19;20205;-40
2023/11/28 10:10:39;;;;;;;6.97;2.78;;;;;;;-1.68;100.00;100042.81;7395474;19;20533;-40
2023/11/28 10:13:12;;;;;;;13.90;3.83;;;;;;;-1.55;100.00;100048.06;7371838;19;20194;-42
2023/11/28 10:15:42;;;;;;;8.65;3.55;;;;;;;-1.38;100.00;100046.00;7396420;19;20206;-42
2023/11/28 10:18:12;;;;;;;10.43;4.50;;;;;;;-1.38;100.00;100043.47;7372507;19;20205;-42
2023/11/28 10:20:42;;;;;;;10.40;3.05;;;;;;;-1.27;100.00;100047.69;7395747;19;20250;-41
2023/11/28 10:23:13;;;;;;;10.75;3.25;;;;;;;-1.23;100.00;100044.63;7373189;19;20186;-41
2023/11/28 10:25:43;;;;;;;8.85;3.40;;;;;;;-1.50;100.00;100044.25;7396709;19;20174;-41
2023/11/28 10:28:17;;;;;;;6.15;3.22;;;;;;;-1.61;100.00;100051.75;7373860;19;20210;-44
2023/11/28 10:30:50;;;;;;;11.63;4.65;;;;;;;-1.42;100.00;100051.56;7395650;19;20174;-44
2023/11/28 10:33:22;;;;;;;10.10;3.20;;;;;;;-1.40;100.00;100050.03;7373775;19;20733;-41
2023/11/28 10:35:52;;;;;;;4.55;2.90;;;;;;;-1.48;100.00;100056.16;7396907;19;20520;-42
2023/11/28 10:38:21;;;;;;;9.30;3.90;;;;;;;-1.44;100.00;100060.69;7372220;19;20277;-40
2023/11/28 10:40:53;;;;;;;5.88;2.70;;;;;;;-1.44;100.00;100053.09;7395133;19;20199;-41
2023/11/28 10:43:26;;;;;;;7.10;3.50;;;;;;;-1.53;100.00;100068.44;7373816;19;20187;-41
2023/11/28 10:45:57;;;;;;;9.32;4.38;;;;;;;-1.53;100.00;100059.19;7392987;19;20143;-41
2023/11/28 10:48:27;;;;;;;8.57;3.25;;;;;;;-1.51;100.00;100066.91;7372417;19;20182;-41
2023/11/28 10:50:56;;;;;;;4.75;2.10;;;;;;;-1.60;100.00;100073.78;7395586;19;20266;-42
2023/11/28 10:53:27;;;;;;;7.95;2.53;;;;;;;-1.60;100.00;100072.13;7366982;19;20214;-44
2023/11/28 10:56:00;;;;;;;12.07;4.00;;;;;;;-1.41;100.00;100069.41;7395585;19;20174;-44
2023/11/28 10:58:33;;;;;;;5.65;2.78;;;;;;;-1.53;100.00;100084.50;7372085;19;20194;-42
2023/11/28 11:01:04;;;;;;;14.68;4.30;;;;;;;-1.64;100.00;100088.69;7393419;19;20175;-41
2023/11/28 11:03:36;;;;;;;3.95;2.40;;;;;;;-1.33;100.00;100091.91;7373435;19;20194;-41
2023/11/28 11:06:06;;;;;;;16.92;5.35;;;;;;;-1.12;100.00;100090.16;7394577;19;20174;-40
2023/11/28 11:08:36;;;;;;;6.00;2.63;;;;;;;-1.34;100.00;100096.06;7373504;19;20216;-41
2023/11/28 11:11:06;;;;;;;5.78;2.20;;;;;;;-1.32;100.00;100086.97;7392956;19;20179;-42
2023/11/28 11:13:49;;;;;;;3.75;2.60;;;;;;;-1.33;100.00;100092.81;7370336;19;20574;-41
2023/11/28 11:16:23;;;;;;;4.05;2.10;;;;;;;-1.44;100.00;100094.47;7372682;19;20615;-41
2023/11/28 11:18:56;;;;;;;10.60;4.28;;;;;;;-1.47;100.00;100106.00;7393436;19;20146;-43
2023/11/28 11:21:30;;;;;;;5.20;2.42;;;;;;;-1.40;100.00;100100.66;7372084;19;20534;-41
2023/11/28 11:24:00;;;;;;;4.88;2.25;;;;;;;-1.20;100.00;100103.84;7394176;19;20142;-41
2023/11/28 11:26:37;;;;;;;6.60;2.30;;;;;;;-1.16;100.00;100109.31;7372104;19;20773;-45
2023/11/28 11:29:12;;;;;;;6.05;3.03;;;;;;;-1.28;100.00;100114.28;7393459;19;20222;-42
2023/11/28 11:31:42;;;;;;;8.00;3.42;;;;;;;-1.33;100.00;100120.66;7371583;19;20224;-42
2023/11/28 11:34:34;;;;;;;5.97;2.10;;;;;;;-1.43;100.00;100128.25;7391945;19;20143;-42
2023/11/28 11:37:11;;;;;;;14.10;5.40;;;;;;;-1.50;100.00;100140.41;7370137;19;20261;-41